Avoca, Michigan
Current Conditions -  °F | °C
As of 1:18 AM on Thursday 29 Jan 2015 (Local Time) from KPHN Reporting Station
Broken Clouds Broken Clouds  
Wind Chill: 14°   Ceiling: 12000
Heat Index: 25°   Visibility: 10mi
Dew Point: 16°   Wind: 12mph
Humidity: 69%   Direction: 150°SSE
Pressure: 30.11"   Gusts: 17mph
Location:  43.06°N, 82.69°W
Report Text: KPHN 290618Z AUTO 15010G15KT 10SM BKN120 M04/M09 A3011 RMK AO2
Loading
Personal Weather Stations






























Interactive Weather Map New forecast layout! Learn more

10-Day Weather Forecast

Advertisements
Track Severe Weather on mobile